Date,TemperatureHighF,TemperatureAvgF,TemperatureLowF,DewpointHighF,DewpointAvgF,DewpointLowF,HumidityHigh,HumidityAvg,HumidityLow,PressureMaxIn,PressureMinIn,WindSpeedMaxMPH,WindSpeedAvgMPH,GustSpeedMaxMPH,PrecipitationSumIn
2013-5-1,61.0,47.4,39.0,27.0,24.1,19.0,57,42,19,0.00,40.00,13,7,15,0.00
2013-5-2,73.0,61.5,37.0,39.0,30.3,26.0,64,33,19,0.00,40.00,10,3,14,0.00
2013-5-3,80.0,68.3,51.0,38.0,34.9,31.0,52,31,16,0.00,40.00,12,6,18,0.00
2013-5-4,77.0,64.6,53.0,40.0,34.9,29.0,61,35,17,0.00,40.00,10,5,24,0.00
2013-5-5,84.0,70.4,51.0,40.0,32.2,24.0,58,28,11,0.00,40.00,10,5,17,0.00
2013-5-6,89.0,72.5,54.0,40.0,34.6,28.0,48,28,11,0.00,40.00,13,6,20,0.00
2013-5-7,90.0,75.2,58.0,47.0,39.7,31.0,45,29,15,0.00,40.00,9,5,15,0.00
2013-5-8,90.0,76.6,62.0,49.0,45.9,41.0,57,36,19,0.00,40.00,13,8,20,0.00
2013-5-9,92.0,76.8,61.0,47.0,40.1,26.0,51,30,9,0.00,40.00,14,8,21,0.00
2013-5-10,92.0,72.5,60.0,47.0,38.2,-99.9,49,33,17,0.00,40.00,14,8,18,0.00
2013-5-11,85.0,72.6,65.0,45.0,43.2,40.0,44,35,20,0.00,40.00,13,8,17,0.00
2013-5-12,77.0,72.1,66.0,52.0,49.3,47.0,56,44,34,0.00,40.00,12,7,22,0.00
2013-5-13,72.0,63.3,49.0,49.0,42.4,29.0,69,47,29,0.00,40.00,18,7,31,0.00
2013-5-14,65.0,51.5,43.0,35.0,32.4,29.0,70,49,30,0.00,40.00,12,6,17,0.00
2013-5-15,68.0,61.3,50.0,36.0,33.7,31.0,53,36,26,0.00,40.00,9,6,14,0.00
2013-5-16,73.0,65.5,56.0,43.0,29.8,-99.9,59,42,29,0.00,40.00,12,5,15,0.00
2013-5-17,70.0,62.6,55.0,49.0,43.8,38.0,63,50,37,0.00,40.00,15,9,20,0.00
2013-5-18,70.0,62.3,55.0,40.0,37.2,34.0,54,39,28,0.00,40.00,16,10,25,0.00
2013-5-19,75.0,63.0,53.0,40.0,36.5,35.0,52,38,25,0.00,40.00,20,11,28,0.00
2013-5-20,76.0,68.0,52.0,45.0,40.1,38.0,61,37,25,0.00,40.00,15,9,24,0.00
2013-5-21,59.0,54.9,53.0,51.0,45.1,37.0,92,70,47,0.00,40.00,13,6,17,0.00
2013-5-22,53.0,48.1,44.0,43.0,39.4,37.0,89,72,56,0.00,40.00,9,5,18,0.00
2013-5-23,61.0,53.8,46.0,42.0,39.4,37.0,82,59,42,0.00,40.00,8,4,16,0.00
2013-5-24,62.0,53.8,48.0,45.0,42.2,40.0,79,65,44,0.00,40.00,12,4,21,0.00
2013-5-25,67.0,56.5,43.0,43.0,39.8,37.0,89,56,33,0.00,40.00,9,3,14,0.00
2013-5-26,73.0,58.7,48.0,48.0,43.2,40.0,76,57,32,0.00,40.00,12,6,17,0.00
2013-5-27,59.0,53.4,47.0,46.0,43.7,41.0,82,69,61,0.00,40.00,8,3,13,0.00
2013-5-28,71.0,63.0,53.0,52.0,45.8,41.0,96,56,35,0.00,40.00,9,4,13,0.00
2013-5-29,65.0,56.8,51.0,52.0,45.2,37.0,86,66,38,0.00,40.00,9,4,14,0.00
2013-5-30,69.0,59.5,49.0,40.0,36.1,33.0,68,44,26,0.00,40.00,13,9,20,0.00
2013-5-31,72.0,61.0,51.0,37.0,35.6,33.0,58,40,24,0.00,40.00,16,8,21,0.00